createdAt,value
2019-05-23T00:00:32.986Z,13.10
2019-05-23T00:01:32.978Z,13.17
2019-05-23T00:02:32.975Z,13.10
2019-05-23T00:03:32.971Z,13.04
2019-05-23T00:04:32.967Z,13.04
2019-05-23T00:05:32.961Z,12.92
2019-05-23T00:06:32.953Z,12.94
2019-05-23T00:07:32.948Z,13.07
2019-05-23T00:08:32.936Z,12.92
2019-05-23T00:09:32.932Z,12.88
2019-05-23T00:10:32.928Z,12.87
2019-05-23T00:11:32.919Z,12.95
2019-05-23T00:12:32.917Z,12.92
2019-05-23T00:13:32.911Z,12.87
2019-05-23T00:14:32.904Z,12.95
2019-05-23T00:15:32.892Z,12.89
2019-05-23T00:16:32.898Z,12.85
2019-05-23T00:17:32.888Z,12.88
2019-05-23T00:18:32.878Z,12.77
2019-05-23T00:19:32.879Z,12.74
2019-05-23T00:20:32.862Z,12.88
2019-05-23T00:21:32.865Z,12.88
2019-05-23T00:22:32.848Z,12.88
2019-05-23T00:23:32.840Z,12.79
2019-05-23T00:24:32.839Z,12.85
2019-05-23T00:25:32.830Z,12.79
2019-05-23T00:26:32.827Z,12.79
2019-05-23T00:27:32.820Z,12.81
2019-05-23T00:28:32.810Z,12.73
2019-05-23T00:29:32.803Z,12.66
2019-05-23T00:30:32.801Z,12.63
2019-05-23T00:31:32.796Z,12.62
2019-05-23T00:32:32.786Z,12.69
2019-05-23T00:33:32.786Z,12.71
2019-05-23T00:34:32.771Z,12.67
2019-05-23T00:35:32.762Z,12.54
2019-05-23T00:36:32.763Z,12.61
2019-05-23T00:37:32.754Z,12.56
2019-05-23T00:38:32.748Z,12.62
2019-05-23T00:39:32.741Z,12.49
2019-05-23T00:40:32.730Z,12.61
2019-05-23T00:41:32.727Z,12.52
2019-05-23T00:42:32.721Z,12.48
2019-05-23T00:43:32.714Z,12.44
2019-05-23T00:44:32.714Z,12.41
2019-05-23T00:45:32.717Z,12.38
2019-05-23T00:46:32.693Z,12.33
2019-05-23T00:47:32.688Z,12.29
2019-05-23T00:48:32.683Z,12.36
2019-05-23T00:49:32.675Z,12.37
2019-05-23T00:50:32.669Z,12.34
2019-05-23T00:51:32.660Z,12.22
2019-05-23T00:52:32.650Z,12.21
2019-05-23T00:53:32.646Z,12.22
2019-05-23T00:54:32.666Z,12.15
2019-05-23T00:55:32.629Z,12.07
2019-05-23T00:56:32.635Z,12.21
2019-05-23T00:57:32.620Z,12.12
2019-05-23T00:58:32.632Z,12.19
2019-05-23T00:59:32.611Z,12.12
2019-05-23T01:00:32.612Z,12.13
2019-05-23T01:01:32.595Z,12.12
2019-05-23T01:02:32.590Z,12.12
2019-05-23T01:03:32.582Z,12.07
2019-05-23T01:04:32.573Z,12.15
2019-05-23T01:05:32.567Z,12.04
2019-05-23T01:06:32.555Z,12.08
2019-05-23T01:07:32.552Z,12.03
2019-05-23T01:08:32.554Z,12.01
2019-05-23T01:09:32.570Z,11.98
2019-05-23T01:10:32.534Z,11.94
2019-05-23T01:11:32.526Z,11.93
2019-05-23T01:12:32.516Z,11.96
2019-05-23T01:13:32.509Z,11.90
2019-05-23T01:14:32.503Z,11.82
2019-05-23T01:15:32.498Z,11.93
2019-05-23T01:16:32.493Z,11.75
2019-05-23T01:17:32.487Z,11.82
2019-05-23T01:18:32.476Z,11.81
2019-05-23T01:19:32.469Z,11.77
2019-05-23T01:20:32.465Z,11.77
2019-05-23T01:21:32.459Z,11.79
2019-05-23T01:22:32.449Z,11.77
2019-05-23T01:23:32.441Z,11.74
2019-05-23T01:24:32.443Z,11.67
2019-05-23T01:25:32.424Z,11.70
2019-05-23T01:26:32.418Z,11.70
2019-05-23T01:27:32.413Z,11.74
2019-05-23T01:28:32.408Z,11.72
2019-05-23T01:29:37.651Z,11.69
2019-05-23T01:30:32.396Z,11.70
2019-05-23T01:31:32.388Z,11.63
2019-05-23T01:32:32.379Z,11.66
2019-05-23T01:33:32.371Z,11.66
2019-05-23T01:34:32.371Z,11.54
2019-05-23T01:35:32.412Z,11.56
2019-05-23T01:36:32.350Z,11.59
2019-05-23T01:37:32.343Z,11.54
2019-05-23T01:38:32.332Z,11.59
2019-05-23T01:39:32.326Z,11.57
2019-05-23T01:40:32.322Z,11.53
2019-05-23T01:41:32.317Z,11.54
2019-05-23T01:42:32.309Z,11.51
2019-05-23T01:43:32.302Z,11.45
2019-05-23T01:44:32.289Z,11.49
2019-05-23T01:45:32.286Z,11.53
2019-05-23T01:46:32.278Z,11.51
2019-05-23T01:47:32.273Z,11.39
2019-05-23T01:48:32.266Z,11.39
2019-05-23T01:49:32.261Z,11.48
2019-05-23T01:50:32.250Z,11.46
2019-05-23T01:51:32.243Z,11.44
2019-05-23T01:52:32.239Z,11.46
2019-05-23T01:53:32.234Z,11.42
2019-05-23T01:54:32.224Z,11.45
2019-05-23T01:55:32.216Z,11.46
2019-05-23T01:56:32.212Z,11.49
2019-05-23T01:57:32.197Z,11.44
2019-05-23T01:58:32.191Z,11.39
2019-05-23T01:59:32.194Z,11.48
2019-05-23T02:00:32.182Z,11.48
2019-05-23T02:01:32.173Z,11.49
2019-05-23T02:02:32.168Z,11.42
2019-05-23T02:03:32.161Z,11.31
2019-05-23T02:04:32.171Z,11.39
2019-05-23T02:05:32.145Z,11.35
2019-05-23T02:06:32.140Z,11.33
2019-05-23T02:07:32.183Z,11.28
2019-05-23T02:08:32.126Z,11.33
2019-05-23T02:09:32.113Z,11.28
2019-05-23T02:10:32.103Z,11.30
2019-05-23T02:11:32.097Z,11.21
2019-05-23T02:12:32.093Z,11.30
2019-05-23T02:13:32.087Z,11.30
2019-05-23T02:14:32.084Z,11.21
2019-05-23T02:15:32.077Z,11.26
2019-05-23T02:16:32.070Z,11.23
2019-05-23T02:17:32.058Z,11.17
2019-05-23T02:18:32.046Z,11.17
2019-05-23T02:19:32.038Z,11.20
2019-05-23T02:20:32.034Z,11.21
2019-05-23T02:21:32.028Z,11.13
2019-05-23T02:22:32.025Z,11.12
2019-05-23T02:23:32.008Z,11.13
2019-05-23T02:24:32.013Z,11.17
2019-05-23T02:25:31.997Z,11.17
2019-05-23T02:26:31.992Z,11.11
2019-05-23T02:27:31.984Z,11.12
2019-05-23T02:28:31.973Z,11.20
2019-05-23T02:29:32.025Z,11.16
2019-05-23T02:30:35.702Z,11.19
2019-05-23T02:31:31.956Z,11.16
2019-05-23T02:32:31.947Z,11.13
2019-05-23T02:33:31.943Z,11.20
2019-05-23T02:34:31.933Z,11.12
2019-05-23T02:35:31.982Z,11.20
2019-05-23T02:36:31.918Z,11.09
2019-05-23T02:37:31.905Z,11.13
2019-05-23T02:38:31.909Z,11.05
2019-05-23T02:39:31.893Z,11.12
2019-05-23T02:40:31.882Z,11.13
2019-05-23T02:41:31.875Z,11.13
2019-05-23T02:42:31.875Z,11.20
2019-05-23T02:43:31.864Z,11.11
2019-05-23T02:44:31.864Z,11.16
2019-05-23T02:45:31.865Z,11.20
2019-05-23T02:46:31.843Z,11.12
2019-05-23T02:47:31.835Z,11.12
2019-05-23T02:48:31.834Z,11.24
2019-05-23T02:49:31.820Z,11.24
2019-05-23T02:50:31.808Z,11.16
2019-05-23T02:51:31.799Z,11.13
2019-05-23T02:52:31.805Z,11.17
2019-05-23T02:53:31.790Z,11.17
2019-05-23T02:54:31.786Z,11.19
2019-05-23T02:55:31.772Z,11.12
2019-05-23T02:56:31.775Z,11.17
2019-05-23T02:57:31.759Z,11.13
2019-05-23T02:58:31.754Z,11.13
2019-05-23T02:59:31.761Z,11.16
2019-05-23T03:00:31.736Z,11.12
2019-05-23T03:01:31.823Z,11.17
2019-05-23T03:02:31.718Z,11.17
2019-05-23T03:03:31.711Z,11.17
2019-05-23T03:04:31.707Z,11.13
2019-05-23T03:05:31.700Z,11.16
2019-05-23T03:06:31.694Z,11.09
2019-05-23T03:07:31.685Z,11.16
2019-05-23T03:08:31.671Z,11.19
2019-05-23T03:09:31.663Z,11.16
2019-05-23T03:10:31.660Z,11.21
2019-05-23T03:11:31.652Z,11.13
2019-05-23T03:12:31.642Z,11.17
2019-05-23T03:13:31.632Z,11.13
2019-05-23T03:14:31.629Z,11.12
2019-05-23T03:15:31.621Z,11.17
2019-05-23T03:16:31.617Z,11.19
2019-05-23T03:17:31.610Z,11.24
2019-05-23T03:18:34.549Z,11.12
2019-05-23T03:19:31.594Z,11.12
2019-05-23T03:20:31.581Z,11.13
2019-05-23T03:21:31.573Z,11.20
2019-05-23T03:22:31.646Z,11.17
2019-05-23T03:23:31.559Z,11.20
2019-05-23T03:24:31.557Z,11.16
2019-05-23T03:25:31.548Z,11.09
2019-05-23T03:26:31.538Z,11.06
2019-05-23T03:27:31.531Z,11.06
2019-05-23T03:28:31.526Z,11.08
2019-05-23T03:29:31.523Z,11.06
2019-05-23T03:30:31.514Z,11.05
2019-05-23T03:31:32.817Z,11.02
2019-05-23T03:32:38.200Z,10.98
2019-05-23T03:33:31.481Z,10.98
2019-05-23T03:34:31.475Z,10.94
2019-05-23T03:35:31.471Z,11.06
2019-05-23T03:36:31.465Z,11.01
2019-05-23T03:37:31.456Z,11.02
2019-05-23T03:38:31.450Z,10.94
2019-05-23T03:39:31.441Z,10.95
2019-05-23T03:40:31.430Z,10.93
2019-05-23T03:41:31.433Z,10.93
2019-05-23T03:42:31.421Z,10.99
2019-05-23T03:43:31.411Z,10.86
2019-05-23T03:44:31.405Z,10.80
2019-05-23T03:45:31.391Z,10.83
2019-05-23T03:46:31.380Z,10.86
2019-05-23T03:47:31.374Z,10.87
2019-05-23T03:48:31.380Z,10.83
2019-05-23T03:49:31.367Z,10.87
2019-05-23T03:50:31.357Z,10.87
2019-05-23T03:51:31.349Z,10.84
2019-05-23T03:52:31.337Z,10.87
2019-05-23T03:53:31.330Z,10.87
2019-05-23T03:54:31.322Z,10.86
2019-05-23T03:55:31.320Z,10.90
2019-05-23T03:56:31.309Z,10.94
2019-05-23T03:57:31.304Z,10.87
2019-05-23T03:58:31.292Z,10.90
2019-05-23T03:59:31.359Z,11.03
2019-05-23T04:00:31.281Z,10.98
2019-05-23T04:01:46.687Z,10.99
2019-05-23T04:02:31.268Z,10.94
2019-05-23T04:03:31.256Z,10.95
2019-05-23T04:04:31.243Z,11.05
2019-05-23T04:05:31.237Z,11.11
2019-05-23T04:06:31.228Z,11.03
2019-05-23T04:07:31.225Z,11.06
2019-05-23T04:08:31.217Z,11.16
2019-05-23T04:09:31.211Z,11.20
2019-05-23T04:10:31.207Z,11.08
2019-05-23T04:11:31.198Z,11.20
2019-05-23T04:12:31.186Z,11.11
2019-05-23T04:13:31.251Z,11.19
2019-05-23T04:14:31.174Z,11.08
2019-05-23T04:15:31.167Z,11.12
2019-05-23T04:16:31.157Z,11.12
2019-05-23T04:17:31.149Z,11.20
2019-05-23T04:18:31.137Z,11.11
2019-05-23T04:19:31.130Z,11.27
2019-05-23T04:20:31.129Z,11.17
2019-05-23T04:21:31.120Z,11.30
2019-05-23T04:22:31.115Z,11.28
2019-05-23T04:23:31.109Z,11.45
2019-05-23T04:24:31.097Z,11.45
2019-05-23T04:25:31.090Z,11.48
2019-05-23T04:26:31.080Z,11.48
2019-05-23T04:27:31.077Z,11.45
2019-05-23T04:28:31.069Z,11.62
2019-05-23T04:29:31.062Z,11.64
2019-05-23T04:30:31.056Z,11.64
2019-05-23T04:31:31.046Z,11.72
2019-05-23T04:32:31.039Z,11.67
2019-05-23T04:33:31.038Z,11.82
2019-05-23T04:34:31.030Z,11.84
2019-05-23T04:35:31.021Z,11.98
2019-05-23T04:36:31.024Z,12.01
2019-05-23T04:37:31.004Z,12.08
2019-05-23T04:38:30.997Z,12.05
2019-05-23T04:39:30.989Z,12.07
2019-05-23T04:40:30.987Z,12.25
2019-05-23T04:41:30.980Z,12.21
2019-05-23T04:42:30.970Z,12.31
2019-05-23T04:43:30.988Z,12.40
2019-05-23T04:44:30.960Z,12.52
2019-05-23T04:45:30.944Z,12.54
2019-05-23T04:46:30.945Z,12.62
2019-05-23T04:47:30.938Z,12.74
2019-05-23T04:48:30.926Z,12.84
2019-05-23T04:49:30.926Z,12.99
2019-05-23T04:50:30.917Z,13.04
2019-05-23T04:51:30.908Z,13.16
2019-05-23T04:52:30.912Z,13.12
2019-05-23T04:53:30.913Z,13.22
2019-05-23T04:54:30.895Z,13.43
2019-05-23T04:55:30.889Z,13.48
2019-05-23T04:56:30.879Z,13.68
2019-05-23T04:57:30.871Z,13.81
2019-05-23T04:58:30.866Z,14.06
2019-05-23T04:59:30.860Z,14.24
2019-05-23T05:00:30.858Z,14.46
2019-05-23T05:01:30.854Z,14.66
2019-05-23T05:02:30.845Z,14.91
2019-05-23T05:03:30.836Z,15.15
2019-05-23T05:04:30.843Z,15.44
2019-05-23T05:05:30.838Z,15.73
2019-05-23T05:06:30.831Z,16.04
2019-05-23T05:07:30.830Z,16.42
2019-05-23T05:08:30.817Z,16.80
2019-05-23T05:09:32.140Z,17.05
2019-05-23T05:10:30.851Z,17.51
2019-05-23T05:11:30.909Z,17.68
2019-05-23T05:12:30.804Z,17.99
2019-05-23T05:13:30.806Z,18.29
2019-05-23T05:14:30.797Z,18.32
2019-05-23T05:15:30.800Z,18.36
2019-05-23T05:16:31.141Z,18.68
2019-05-23T05:17:30.782Z,18.78
2019-05-23T05:18:30.786Z,18.83
2019-05-23T05:19:30.783Z,18.35
2019-05-23T05:20:30.775Z,18.28
2019-05-23T05:21:30.771Z,18.54
2019-05-23T05:22:30.773Z,18.69
2019-05-23T05:23:30.772Z,18.93
2019-05-23T05:24:30.814Z,18.90
2019-05-23T05:25:30.770Z,19.16
2019-05-23T05:26:30.767Z,19.27
2019-05-23T05:27:30.764Z,19.25
2019-05-23T05:28:30.758Z,19.47
2019-05-23T05:29:30.760Z,19.83
2019-05-23T05:30:30.758Z,20.19
2019-05-23T05:31:30.756Z,20.44
2019-05-23T05:32:43.960Z,20.69
2019-05-23T05:33:30.761Z,20.91
2019-05-23T05:34:30.753Z,20.66
2019-05-23T05:35:30.753Z,20.44
2019-05-23T05:36:30.756Z,20.71
2019-05-23T05:37:30.755Z,20.82
2019-05-23T05:38:30.763Z,21.05
2019-05-23T05:39:30.757Z,21.21
2019-05-23T05:40:30.765Z,21.55
2019-05-23T05:41:30.749Z,21.19
2019-05-23T05:42:30.748Z,21.22
2019-05-23T05:43:30.749Z,20.13
2019-05-23T05:44:30.749Z,19.98
2019-05-23T05:45:30.823Z,19.58
2019-05-23T05:46:30.755Z,19.32
2019-05-23T05:47:30.755Z,19.05
2019-05-23T05:48:30.750Z,19.31
2019-05-23T05:49:30.754Z,19.70
2019-05-23T05:50:30.758Z,19.67
2019-05-23T05:51:30.757Z,19.46
2019-05-23T05:52:30.755Z,19.25
2019-05-23T05:53:30.758Z,19.23
2019-05-23T05:54:30.759Z,19.52
2019-05-23T05:55:30.757Z,18.68
2019-05-23T05:56:30.768Z,18.65
2019-05-23T05:57:30.766Z,18.19
2019-05-23T05:58:30.777Z,18.76
2019-05-23T05:59:30.767Z,19.55
2019-05-23T06:00:30.849Z,19.71
2019-05-23T06:01:33.942Z,20.33
2019-05-23T06:02:30.975Z,20.71
2019-05-23T06:03:30.773Z,20.96
2019-05-23T06:04:30.778Z,21.13
2019-05-23T06:05:30.782Z,20.22
2019-05-23T06:06:30.789Z,20.40
2019-05-23T06:07:30.782Z,20.44
2019-05-23T06:08:30.788Z,20.12
2019-05-23T06:09:30.789Z,20.04
2019-05-23T06:10:30.791Z,20.48
2019-05-23T06:11:30.793Z,21.11
2019-05-23T06:12:30.790Z,20.16
2019-05-23T06:13:30.859Z,20.68
2019-05-23T06:14:30.797Z,20.82
2019-05-23T06:15:30.802Z,20.76
2019-05-23T06:16:30.813Z,21.09
2019-05-23T06:17:30.828Z,21.33
2019-05-23T06:18:30.821Z,20.76
2019-05-23T06:19:30.820Z,20.41
2019-05-23T06:20:30.821Z,20.41
2019-05-23T06:21:30.832Z,20.54
2019-05-23T06:22:30.832Z,20.15
2019-05-23T06:23:30.838Z,20.16
2019-05-23T06:24:45.414Z,20.53
2019-05-23T06:25:30.861Z,20.97
2019-05-23T06:26:30.840Z,21.16
2019-05-23T06:27:30.841Z,21.21
2019-05-23T06:28:30.851Z,20.97
2019-05-23T06:29:30.855Z,20.81
2019-05-23T06:30:32.817Z,21.85
2019-05-23T06:31:30.865Z,22.45
2019-05-23T06:32:30.866Z,22.67
2019-05-23T06:33:30.871Z,22.88
2019-05-23T06:34:30.922Z,23.38
2019-05-23T06:35:30.877Z,23.93
2019-05-23T06:36:30.886Z,24.12
2019-05-23T06:37:34.205Z,23.99
2019-05-23T06:38:30.921Z,23.71
2019-05-23T06:39:30.899Z,23.99
2019-05-23T06:40:30.909Z,23.47
2019-05-23T06:41:30.914Z,23.50
2019-05-23T06:42:30.921Z,24.04
2019-05-23T06:43:30.926Z,23.54
2019-05-23T06:44:30.931Z,24.29
2019-05-23T06:45:30.956Z,24.79
2019-05-23T06:46:30.939Z,25.41
2019-05-23T06:47:30.945Z,25.11
2019-05-23T06:48:30.958Z,24.75
2019-05-23T06:49:30.962Z,24.60
2019-05-23T06:50:30.971Z,24.34
2019-05-23T06:51:30.974Z,24.27
2019-05-23T06:52:30.975Z,25.14
2019-05-23T06:53:30.981Z,25.57
2019-05-23T06:54:30.994Z,26.35
2019-05-23T06:55:31.018Z,26.31
2019-05-23T06:56:31.005Z,26.73
2019-05-23T06:57:31.008Z,27.15
2019-05-23T06:58:31.037Z,27.78
2019-05-23T06:59:31.027Z,27.98
2019-05-23T07:00:31.038Z,27.08
2019-05-23T07:01:31.048Z,27.01
2019-05-23T07:02:32.251Z,27.06
2019-05-23T07:03:41.543Z,27.62
2019-05-23T07:04:31.064Z,27.98
2019-05-23T07:05:31.075Z,27.88
2019-05-23T07:06:31.089Z,28.24
2019-05-23T07:07:31.088Z,28.74
2019-05-23T07:08:31.099Z,29.35
2019-05-23T07:09:31.111Z,29.70
2019-05-23T07:10:31.113Z,29.64
2019-05-23T07:11:31.119Z,30.29
2019-05-23T07:12:31.133Z,30.72
2019-05-23T07:13:31.143Z,30.19
2019-05-23T07:14:31.153Z,31.18
2019-05-23T07:15:31.166Z,31.18
2019-05-23T07:16:31.168Z,31.01
2019-05-23T07:17:31.177Z,31.04
2019-05-23T07:18:31.197Z,31.19
2019-05-23T07:19:31.196Z,30.18
2019-05-23T07:20:31.214Z,30.13
2019-05-23T07:21:31.221Z,29.84
2019-05-23T07:22:31.231Z,29.81
2019-05-23T07:23:31.238Z,29.52
2019-05-23T07:24:31.307Z,30.22
2019-05-23T07:25:31.254Z,30.61
2019-05-23T07:26:31.269Z,29.64
2019-05-23T07:27:31.279Z,29.86
2019-05-23T07:28:31.284Z,29.86
2019-05-23T07:29:31.296Z,30.51
2019-05-23T07:30:31.312Z,31.20
2019-05-23T07:31:31.573Z,31.68
2019-05-23T07:32:31.355Z,30.76
2019-05-23T07:33:31.347Z,31.57
2019-05-23T07:34:31.356Z,31.46
2019-05-23T07:35:31.374Z,31.82
2019-05-23T07:36:31.375Z,31.04
2019-05-23T07:37:31.386Z,31.69
2019-05-23T07:38:31.402Z,31.40
2019-05-23T07:39:31.434Z,31.16
2019-05-23T07:40:31.428Z,29.95
2019-05-23T07:41:31.462Z,30.07
2019-05-23T07:42:31.447Z,29.21
2019-05-23T07:43:31.460Z,28.32
2019-05-23T07:44:47.164Z,29.26
2019-05-23T07:45:31.487Z,30.03
2019-05-23T07:46:31.499Z,30.78
2019-05-23T07:47:31.508Z,30.60
2019-05-23T07:48:31.520Z,30.83
2019-05-23T07:49:31.536Z,31.05
2019-05-23T07:50:31.542Z,31.87
2019-05-23T07:51:31.553Z,32.69
2019-05-23T07:52:31.568Z,32.66
2019-05-23T07:53:31.618Z,32.87
2019-05-23T07:54:31.605Z,33.59
2019-05-23T07:55:31.605Z,33.26
2019-05-23T07:56:31.614Z,33.33
2019-05-23T07:57:31.628Z,30.94
2019-05-23T07:58:31.655Z,31.69
2019-05-23T07:59:31.671Z,31.84
2019-05-23T08:00:31.681Z,32.53
2019-05-23T08:01:31.677Z,32.71
2019-05-23T08:02:31.691Z,33.31
2019-05-23T08:03:31.699Z,33.38
2019-05-23T08:04:31.722Z,34.16
2019-05-23T08:05:31.729Z,34.36
2019-05-23T08:06:31.742Z,35.20
2019-05-23T08:07:32.831Z,35.54
2019-05-23T08:08:31.767Z,35.12
2019-05-23T08:09:31.780Z,35.24
2019-05-23T08:10:34.088Z,34.03
2019-05-23T08:11:31.807Z,31.87
2019-05-23T08:12:31.827Z,31.67
2019-05-23T08:13:31.840Z,32.28
2019-05-23T08:14:31.849Z,33.07
2019-05-23T08:15:31.863Z,33.29
2019-05-23T08:16:31.879Z,34.28
2019-05-23T08:17:31.893Z,33.74
2019-05-23T08:18:31.922Z,33.49
2019-05-23T08:19:46.930Z,32.31
2019-05-23T08:20:31.929Z,32.06
2019-05-23T08:21:31.946Z,30.85
2019-05-23T08:22:31.961Z,31.38
2019-05-23T08:23:31.972Z,31.09
2019-05-23T08:24:31.996Z,31.95
2019-05-23T08:25:32.030Z,33.07
2019-05-23T08:26:32.022Z,33.87
2019-05-23T08:27:32.038Z,34.50
2019-05-23T08:28:32.047Z,34.65
2019-05-23T08:29:32.061Z,34.90
2019-05-23T08:30:32.084Z,34.93
2019-05-23T08:31:32.096Z,34.75
2019-05-23T08:32:32.109Z,35.62
2019-05-23T08:33:32.123Z,35.80
2019-05-23T08:34:41.558Z,36.15
2019-05-23T08:35:32.152Z,36.06
2019-05-23T08:36:32.171Z,36.62
2019-05-23T08:37:32.191Z,37.18
2019-05-23T08:38:32.206Z,36.08
2019-05-23T08:39:32.221Z,35.89
2019-05-23T08:40:32.243Z,34.27
2019-05-23T08:41:32.251Z,35.13
2019-05-23T08:42:32.263Z,35.31
2019-05-23T08:43:32.289Z,35.66
2019-05-23T08:44:32.298Z,35.87
2019-05-23T08:45:32.318Z,36.37
2019-05-23T08:46:32.327Z,35.95
2019-05-23T08:47:32.343Z,36.59
2019-05-23T08:48:32.364Z,36.71
2019-05-23T08:49:32.380Z,36.28
2019-05-23T08:50:32.435Z,35.91
2019-05-23T08:51:32.415Z,35.98
2019-05-23T08:52:32.427Z,36.27
2019-05-23T08:53:32.450Z,36.60
2019-05-23T08:54:32.461Z,37.24
2019-05-23T08:55:32.479Z,36.64
2019-05-23T08:56:32.519Z,37.27
2019-05-23T08:57:32.519Z,37.88
2019-05-23T08:58:32.530Z,38.55
2019-05-23T08:59:32.544Z,37.97
2019-05-23T09:00:32.559Z,38.53
2019-05-23T09:01:32.577Z,37.49
2019-05-23T09:02:32.597Z,37.21
2019-05-23T09:03:32.623Z,36.27
2019-05-23T09:04:32.627Z,36.97
2019-05-23T09:05:32.644Z,37.43
2019-05-23T09:06:32.667Z,37.69
2019-05-23T09:07:32.681Z,38.02
2019-05-23T09:08:32.709Z,38.06
2019-05-23T09:09:32.723Z,38.09
2019-05-23T09:10:32.837Z,38.45
2019-05-23T09:11:32.755Z,39.02
2019-05-23T09:12:32.772Z,37.82
2019-05-23T09:13:32.787Z,38.36
2019-05-23T09:14:32.804Z,37.65
2019-05-23T09:15:32.821Z,36.82
2019-05-23T09:16:33.371Z,35.93
2019-05-23T09:17:49.744Z,36.23
2019-05-23T09:18:32.874Z,36.60
2019-05-23T09:19:32.893Z,37.08
2019-05-23T09:20:32.915Z,37.68
2019-05-23T09:21:32.953Z,37.99
2019-05-23T09:22:32.953Z,37.78
2019-05-23T09:23:32.970Z,37.56
2019-05-23T09:24:32.984Z,37.42
2019-05-23T09:25:33.005Z,37.82
2019-05-23T09:26:33.022Z,38.06
2019-05-23T09:27:34.650Z,38.44
2019-05-23T09:28:33.060Z,39.00
2019-05-23T09:29:33.080Z,38.49
2019-05-23T09:30:33.100Z,37.21
2019-05-23T09:31:33.115Z,37.27
2019-05-23T09:32:33.127Z,37.30
2019-05-23T09:33:33.154Z,36.43
2019-05-23T09:34:33.174Z,37.18
2019-05-23T09:35:33.187Z,35.02
2019-05-23T09:36:33.204Z,34.98
2019-05-23T09:37:33.225Z,35.25
2019-05-23T09:38:33.242Z,35.87
2019-05-23T09:39:33.268Z,35.73
2019-05-23T09:40:33.294Z,35.99
2019-05-23T09:41:33.304Z,36.35
2019-05-23T09:42:33.322Z,35.93
2019-05-23T09:43:33.336Z,35.85
2019-05-23T09:44:33.350Z,35.24
2019-05-23T09:45:33.370Z,34.43
2019-05-23T09:46:33.385Z,34.86
2019-05-23T09:47:33.404Z,34.31
2019-05-23T09:48:33.425Z,33.31
2019-05-23T09:49:33.446Z,34.18
2019-05-23T09:50:33.474Z,33.14
2019-05-23T09:51:33.473Z,33.87
2019-05-23T09:52:33.495Z,32.27
2019-05-23T09:53:33.512Z,32.65
2019-05-23T09:54:33.532Z,32.36
2019-05-23T09:55:33.549Z,32.81
2019-05-23T09:56:33.561Z,33.44
2019-05-23T09:57:33.580Z,32.87
2019-05-23T09:58:33.595Z,33.44
2019-05-23T09:59:33.611Z,32.69
2019-05-23T10:00:33.631Z,33.40
2019-05-23T10:01:33.650Z,33.24
2019-05-23T10:02:33.663Z,33.18
2019-05-23T10:03:33.678Z,33.28
2019-05-23T10:04:33.709Z,32.25
2019-05-23T10:05:42.966Z,33.07
2019-05-23T10:06:33.738Z,33.55
2019-05-23T10:07:33.741Z,33.68
2019-05-23T10:08:33.755Z,33.71
2019-05-23T10:09:33.767Z,33.87
2019-05-23T10:10:33.791Z,33.87
2019-05-23T10:11:33.818Z,34.27
2019-05-23T10:12:33.819Z,34.42
2019-05-23T10:13:38.944Z,34.21
2019-05-23T10:14:33.849Z,33.81
2019-05-23T10:15:33.867Z,34.05
2019-05-23T10:16:33.876Z,34.81
2019-05-23T10:17:33.928Z,34.67
2019-05-23T10:18:33.907Z,35.10
2019-05-23T10:19:33.917Z,34.83
2019-05-23T10:20:33.951Z,34.93
2019-05-23T10:21:33.955Z,34.63
2019-05-23T10:22:33.965Z,34.48
2019-05-23T10:23:33.992Z,34.26
2019-05-23T10:24:34.004Z,34.12
2019-05-23T10:25:34.021Z,32.53
2019-05-23T10:26:34.035Z,31.04
2019-05-23T10:27:34.050Z,31.07
2019-05-23T10:28:34.061Z,31.32
2019-05-23T10:29:34.076Z,31.57
2019-05-23T10:30:34.092Z,31.56
2019-05-23T10:31:34.105Z,32.07
2019-05-23T10:32:34.138Z,33.06
2019-05-23T10:33:34.140Z,33.84
2019-05-23T10:34:34.152Z,34.06
2019-05-23T10:35:34.167Z,34.86
2019-05-23T10:36:34.177Z,34.95
2019-05-23T10:37:34.193Z,34.72
2019-05-23T10:38:34.211Z,35.55
2019-05-23T10:39:34.226Z,35.50
2019-05-23T10:40:34.236Z,35.09
2019-05-23T10:41:34.251Z,35.22
2019-05-23T10:42:34.269Z,35.49
2019-05-23T10:43:34.285Z,34.67
2019-05-23T10:44:34.303Z,34.12
2019-05-23T10:45:34.320Z,33.35
2019-05-23T10:46:34.334Z,32.32
2019-05-23T10:47:34.348Z,30.73
2019-05-23T10:48:34.363Z,29.94
2019-05-23T10:49:34.380Z,30.40
2019-05-23T10:50:44.282Z,30.54
2019-05-23T10:51:34.409Z,30.83
2019-05-23T10:52:34.431Z,31.03
2019-05-23T10:53:34.445Z,30.86
2019-05-23T10:54:34.456Z,31.41
2019-05-23T10:55:34.471Z,31.98
2019-05-23T10:56:34.490Z,31.57
2019-05-23T10:57:34.505Z,31.74
2019-05-23T10:58:34.516Z,31.90
2019-05-23T10:59:34.532Z,29.82
2019-05-23T11:00:34.549Z,29.12
2019-05-23T11:01:34.559Z,29.12
2019-05-23T11:02:34.570Z,29.49
2019-05-23T11:03:34.585Z,30.46
2019-05-23T11:04:34.602Z,30.68
2019-05-23T11:05:34.618Z,31.03
2019-05-23T11:06:34.634Z,31.37
2019-05-23T11:07:34.648Z,30.98
2019-05-23T11:08:34.657Z,30.79
2019-05-23T11:09:37.945Z,30.54
2019-05-23T11:10:34.698Z,30.86
2019-05-23T11:11:34.708Z,30.60
2019-05-23T11:12:34.713Z,31.22
2019-05-23T11:13:34.729Z,31.12
2019-05-23T11:14:34.746Z,31.15
2019-05-23T11:15:34.746Z,31.31
2019-05-23T11:16:34.764Z,31.34
2019-05-23T11:17:34.787Z,31.13
2019-05-23T11:18:34.793Z,30.78
2019-05-23T11:19:34.820Z,30.28
2019-05-23T11:20:36.113Z,29.82
2019-05-23T11:21:34.824Z,29.07
2019-05-23T11:22:34.839Z,28.80
2019-05-23T11:23:34.846Z,28.79
2019-05-23T11:24:34.861Z,28.60
2019-05-23T11:25:34.888Z,28.48
2019-05-23T11:26:34.880Z,28.74
2019-05-23T11:27:34.891Z,29.02
2019-05-23T11:28:34.908Z,29.20
2019-05-23T11:29:34.912Z,28.79
2019-05-23T11:30:34.921Z,28.36
2019-05-23T11:31:34.930Z,28.46
2019-05-23T11:32:34.934Z,28.51
2019-05-23T11:33:34.943Z,28.48
2019-05-23T11:34:34.967Z,28.18
2019-05-23T11:35:34.959Z,28.09
2019-05-23T11:36:36.678Z,27.59
2019-05-23T11:37:34.986Z,27.08
2019-05-23T11:38:34.990Z,26.98
2019-05-23T11:39:42.210Z,26.64
2019-05-23T11:40:35.002Z,26.23
2019-05-23T11:41:35.011Z,26.38
2019-05-23T11:42:35.025Z,26.21
2019-05-23T11:43:35.026Z,26.46
2019-05-23T11:44:35.030Z,26.75
2019-05-23T11:45:35.047Z,26.94
2019-05-23T11:46:35.041Z,26.88
2019-05-23T11:47:35.060Z,27.12
2019-05-23T11:48:35.069Z,27.30
2019-05-23T11:49:35.062Z,27.49
2019-05-23T11:50:35.122Z,27.49
2019-05-23T11:51:35.079Z,27.58
2019-05-23T11:52:35.079Z,27.62
2019-05-23T11:53:35.088Z,27.63
2019-05-23T11:54:35.113Z,27.98
2019-05-23T11:55:35.114Z,27.88
2019-05-23T11:56:35.109Z,27.78
2019-05-23T11:57:37.843Z,26.97
2019-05-23T11:58:35.123Z,26.79
2019-05-23T11:59:35.118Z,26.79
2019-05-23T12:00:35.134Z,26.78
2019-05-23T12:01:35.130Z,26.83
2019-05-23T12:02:35.139Z,26.88
2019-05-23T12:03:35.142Z,26.41
2019-05-23T12:04:35.144Z,26.59
2019-05-23T12:05:35.183Z,26.78
2019-05-23T12:06:53.143Z,26.61
2019-05-23T12:07:35.160Z,26.68
2019-05-23T12:08:35.170Z,26.81
2019-05-23T12:09:35.177Z,26.64
2019-05-23T12:10:35.186Z,26.83
2019-05-23T12:11:38.069Z,26.65
2019-05-23T12:12:35.189Z,26.56
2019-05-23T12:13:35.188Z,26.53
2019-05-23T12:14:35.197Z,26.34
2019-05-23T12:15:35.199Z,26.51
2019-05-23T12:16:35.204Z,26.68
2019-05-23T12:17:35.205Z,26.76
2019-05-23T12:18:35.214Z,26.65
2019-05-23T12:19:35.663Z,26.42
2019-05-23T12:20:35.227Z,26.41
2019-05-23T12:21:35.232Z,26.41
2019-05-23T12:22:35.244Z,26.46
2019-05-23T12:23:35.243Z,26.66
2019-05-23T12:24:35.945Z,26.46
2019-05-23T12:25:35.246Z,26.54
2019-05-23T12:26:35.252Z,26.65
2019-05-23T12:27:35.254Z,26.78
2019-05-23T12:28:35.265Z,26.79
2019-05-23T12:29:35.268Z,26.09
2019-05-23T12:30:35.268Z,26.04
2019-05-23T12:31:35.269Z,25.96
2019-05-23T12:32:35.280Z,25.54
2019-05-23T12:33:35.284Z,25.60
2019-05-23T12:34:35.289Z,25.48
2019-05-23T12:35:35.294Z,25.53
2019-05-23T12:36:35.294Z,25.74
2019-05-23T12:37:35.301Z,25.98
2019-05-23T12:38:35.304Z,25.63
2019-05-23T12:39:35.306Z,25.63
2019-05-23T12:40:35.461Z,25.83
2019-05-23T12:41:35.319Z,26.11
2019-05-23T12:42:35.321Z,26.19
2019-05-23T12:43:35.336Z,26.41
2019-05-23T12:44:35.330Z,26.57
2019-05-23T12:45:35.327Z,26.75
2019-05-23T12:46:35.339Z,26.79
2019-05-23T12:47:35.342Z,26.83
2019-05-23T12:48:35.341Z,26.90
2019-05-23T12:49:35.353Z,26.97
2019-05-23T12:50:35.371Z,27.06
2019-05-23T12:51:35.356Z,27.06
2019-05-23T12:52:35.372Z,27.06